Japan Airlines Virtual Airport Information Service

Singapore Changi Airport

ICAO: WSSS Country: Singapore
Latitude: 1.35019 Longitude: 103.994
Latest Arrival : SCC248 (NZWN-WSSS) Latest Departure : SCC734 (WSSS-EDDT)


WX CaptureLIVE
Data provided by noaa.gov | Fetched at 12:44:09

METAR : WSSS 061200Z 15006KT 9999 FEW018 BKN150 29/25 Q1008 NOSIG

TAF : WSSS 061100Z 0612/0718 17009KT 9999 FEW015 SCT020


Runway Data for WSSS
Data provided by openaviationdata.com

Runway ID Mag Var Hdg Length Elevation Surface ILS Freq ILS Id ILS Slope
02L 0 22° 13152 ft 22 ft Bituminous 110.9 ICW 3
02C 0 22° 13179 ft 22 ft Bituminous 108.3 ICE 3
20R 0 202° 13152 ft 22 ft Bituminous 108.9 ICH 3
20C 0 202° 13179 ft 22 ft Bituminous 109.7 ICC 3

Singapore Changi Airport, Singapore
Use only for reference purposes



Not for navigational purposes.